sensor_id;sensor_type;location;lat;lon;timestamp;pressure;altitude;pressure_sealevel;temperature;humidity
17521;BME280;8878;-33.370;-70.552;2023-05-23T00:02:09;92104.22;;;16.67;60.90
17521;BME280;8878;-33.370;-70.552;2023-05-23T00:04:39;92127.34;;;16.08;62.00
17521;BME280;8878;-33.370;-70.552;2023-05-23T00:07:09;92141.59;;;15.90;62.39
17521;BME280;8878;-33.370;-70.552;2023-05-23T00:09:40;92150.56;;;15.80;62.99
17521;BME280;8878;-33.370;-70.552;2023-05-23T00:12:10;92144.91;;;16.09;61.75
17521;BME280;8878;-33.370;-70.552;2023-05-23T00:14:39;92140.66;;;16.08;62.32
17521;BME280;8878;-33.370;-70.552;2023-05-23T00:17:09;92147.22;;;16.24;62.20
17521;BME280;8878;-33.370;-70.552;2023-05-23T00:19:38;92159.56;;;16.06;62.86
17521;BME280;8878;-33.370;-70.552;2023-05-23T00:22:07;92160.59;;;15.97;63.03
17521;BME280;8878;-33.370;-70.552;2023-05-23T00:24:38;92151.19;;;16.13;63.09
17521;BME280;8878;-33.370;-70.552;2023-05-23T00:27:08;92158.63;;;16.02;63.43
17521;BME280;8878;-33.370;-70.552;2023-05-23T00:29:37;92184.53;;;15.97;63.21
17521;BME280;8878;-33.370;-70.552;2023-05-23T00:32:07;92196.97;;;15.88;63.24
17521;BME280;8878;-33.370;-70.552;2023-05-23T00:34:36;92191.59;;;16.15;62.96
17521;BME280;8878;-33.370;-70.552;2023-05-23T00:37:05;92196.03;;;16.33;62.66
17521;BME280;8878;-33.370;-70.552;2023-05-23T00:39:35;92198.75;;;16.42;62.41
17521;BME280;8878;-33.370;-70.552;2023-05-23T00:42:06;92194.00;;;16.53;62.22
17521;BME280;8878;-33.370;-70.552;2023-05-23T00:44:35;92200.81;;;16.45;62.46
17521;BME280;8878;-33.370;-70.552;2023-05-23T00:47:07;92202.19;;;16.42;62.58
17521;BME280;8878;-33.370;-70.552;2023-05-23T00:49:37;92203.75;;;15.94;63.73
17521;BME280;8878;-33.370;-70.552;2023-05-23T00:52:06;92195.47;;;16.09;63.55
17521;BME280;8878;-33.370;-70.552;2023-05-23T00:54:38;92199.09;;;16.13;63.73
17521;BME280;8878;-33.370;-70.552;2023-05-23T00:57:10;92194.56;;;16.00;63.64
17521;BME280;8878;-33.370;-70.552;2023-05-23T00:59:40;92190.66;;;15.97;63.72
17521;BME280;8878;-33.370;-70.552;2023-05-23T01:02:09;92181.66;;;15.93;64.03
17521;BME280;8878;-33.370;-70.552;2023-05-23T01:04:39;92171.72;;;15.99;63.84
17521;BME280;8878;-33.370;-70.552;2023-05-23T01:07:09;92172.00;;;16.11;63.12
17521;BME280;8878;-33.370;-70.552;2023-05-23T01:09:39;92167.78;;;16.10;62.92
17521;BME280;8878;-33.370;-70.552;2023-05-23T01:12:18;92159.16;;;16.13;62.90
17521;BME280;8878;-33.370;-70.552;2023-05-23T01:15:01;92158.47;;;16.21;62.31
17521;BME280;8878;-33.370;-70.552;2023-05-23T01:17:40;92164.50;;;16.13;62.22
17521;BME280;8878;-33.370;-70.552;2023-05-23T01:20:17;92156.81;;;16.25;61.81
17521;BME280;8878;-33.370;-70.552;2023-05-23T01:22:59;92149.53;;;16.03;61.65
17521;BME280;8878;-33.370;-70.552;2023-05-23T01:25:47;92147.38;;;16.05;61.14
17521;BME280;8878;-33.370;-70.552;2023-05-23T01:28:25;92154.06;;;16.03;60.65
17521;BME280;8878;-33.370;-70.552;2023-05-23T01:30:57;92132.19;;;16.06;60.19
17521;BME280;8878;-33.370;-70.552;2023-05-23T01:33:31;92126.28;;;16.09;59.83
17521;BME280;8878;-33.370;-70.552;2023-05-23T01:36:02;92126.84;;;16.20;58.66
17521;BME280;8878;-33.370;-70.552;2023-05-23T01:38:32;92114.22;;;16.25;58.77
17521;BME280;8878;-33.370;-70.552;2023-05-23T01:41:01;92108.16;;;16.33;58.32
17521;BME280;8878;-33.370;-70.552;2023-05-23T01:43:34;92109.88;;;16.16;57.96
17521;BME280;8878;-33.370;-70.552;2023-05-23T01:46:04;92110.97;;;16.15;57.78
17521;BME280;8878;-33.370;-70.552;2023-05-23T01:48:35;92124.19;;;16.42;57.21
17521;BME280;8878;-33.370;-70.552;2023-05-23T01:51:05;92122.22;;;16.48;57.24
17521;BME280;8878;-33.370;-70.552;2023-05-23T01:53:35;92108.84;;;16.39;57.42
17521;BME280;8878;-33.370;-70.552;2023-05-23T01:56:05;92101.09;;;16.51;57.46
17521;BME280;8878;-33.370;-70.552;2023-05-23T01:58:36;92095.63;;;16.56;57.89
17521;BME280;8878;-33.370;-70.552;2023-05-23T02:01:06;92095.63;;;16.56;58.36
17521;BME280;8878;-33.370;-70.552;2023-05-23T02:03:35;92094.19;;;16.50;58.87
17521;BME280;8878;-33.370;-70.552;2023-05-23T02:06:05;92097.81;;;16.32;58.71
17521;BME280;8878;-33.370;-70.552;2023-05-23T02:08:35;92095.22;;;16.40;58.71
17521;BME280;8878;-33.370;-70.552;2023-05-23T02:11:05;92095.22;;;16.40;57.02
17521;BME280;8878;-33.370;-70.552;2023-05-23T02:13:38;92103.25;;;16.49;56.67
17521;BME280;8878;-33.370;-70.552;2023-05-23T02:16:07;92100.28;;;16.51;57.84
17521;BME280;8878;-33.370;-70.552;2023-05-23T02:18:37;92102.97;;;16.51;58.07
17521;BME280;8878;-33.370;-70.552;2023-05-23T02:21:06;92102.06;;;16.55;57.91
17521;BME280;8878;-33.370;-70.552;2023-05-23T02:23:35;92107.19;;;16.52;58.43
17521;BME280;8878;-33.370;-70.552;2023-05-23T02:26:04;92115.91;;;16.43;57.82
17521;BME280;8878;-33.370;-70.552;2023-05-23T02:28:34;92125.78;;;16.07;56.67
17521;BME280;8878;-33.370;-70.552;2023-05-23T02:31:05;92137.81;;;15.50;55.35
17521;BME280;8878;-33.370;-70.552;2023-05-23T02:33:34;92142.00;;;15.70;55.25
17521;BME280;8878;-33.370;-70.552;2023-05-23T02:36:04;92151.00;;;16.10;54.13
17521;BME280;8878;-33.370;-70.552;2023-05-23T02:38:33;92161.97;;;15.94;54.19
17521;BME280;8878;-33.370;-70.552;2023-05-23T02:41:03;92172.81;;;15.98;54.83
17521;BME280;8878;-33.370;-70.552;2023-05-23T02:43:32;92165.94;;;15.56;57.13
17521;BME280;8878;-33.370;-70.552;2023-05-23T02:46:02;92146.78;;;16.09;56.31
17521;BME280;8878;-33.370;-70.552;2023-05-23T02:48:33;92159.22;;;16.35;55.77
17521;BME280;8878;-33.370;-70.552;2023-05-23T02:51:03;92155.84;;;16.43;55.41
17521;BME280;8878;-33.370;-70.552;2023-05-23T02:53:32;92151.31;;;15.94;57.65
17521;BME280;8878;-33.370;-70.552;2023-05-23T02:56:01;92163.31;;;16.19;57.67
17521;BME280;8878;-33.370;-70.552;2023-05-23T02:58:31;92162.31;;;16.15;57.69
17521;BME280;8878;-33.370;-70.552;2023-05-23T03:01:02;92161.19;;;15.94;58.34
17521;BME280;8878;-33.370;-70.552;2023-05-23T03:03:33;92172.41;;;16.04;58.46
17521;BME280;8878;-33.370;-70.552;2023-05-23T03:06:03;92170.53;;;16.19;58.52
17521;BME280;8878;-33.370;-70.552;2023-05-23T03:08:32;92170.03;;;16.03;59.11
17521;BME280;8878;-33.370;-70.552;2023-05-23T03:11:01;92179.00;;;16.07;59.17
17521;BME280;8878;-33.370;-70.552;2023-05-23T03:13:33;92188.81;;;16.20;59.73
17521;BME280;8878;-33.370;-70.552;2023-05-23T03:16:02;92186.97;;;16.21;59.14
17521;BME280;8878;-33.370;-70.552;2023-05-23T03:18:33;92192.25;;;15.98;59.57
17521;BME280;8878;-33.370;-70.552;2023-05-23T03:21:03;92193.78;;;15.99;59.76
17521;BME280;8878;-33.370;-70.552;2023-05-23T03:23:32;92187.00;;;15.93;60.36
17521;BME280;8878;-33.370;-70.552;2023-05-23T03:26:02;92189.38;;;15.95;60.68
17521;BME280;8878;-33.370;-70.552;2023-05-23T03:28:32;92188.88;;;15.93;60.60
17521;BME280;8878;-33.370;-70.552;2023-05-23T03:31:01;92194.69;;;15.68;60.74
17521;BME280;8878;-33.370;-70.552;2023-05-23T03:33:32;92190.47;;;15.66;60.75
17521;BME280;8878;-33.370;-70.552;2023-05-23T03:36:03;92193.13;;;15.80;60.49
17521;BME280;8878;-33.370;-70.552;2023-05-23T03:38:32;92193.59;;;15.96;60.21
17521;BME280;8878;-33.370;-70.552;2023-05-23T03:41:03;92180.69;;;16.03;59.23
17521;BME280;8878;-33.370;-70.552;2023-05-23T03:43:34;92180.69;;;16.03;59.36
17521;BME280;8878;-33.370;-70.552;2023-05-23T03:46:03;92183.94;;;16.00;58.66
17521;BME280;8878;-33.370;-70.552;2023-05-23T03:48:34;92180.81;;;15.98;58.86
17521;BME280;8878;-33.370;-70.552;2023-05-23T03:51:03;92169.63;;;16.10;59.14
17521;BME280;8878;-33.370;-70.552;2023-05-23T03:53:32;92185.91;;;15.94;59.19
17521;BME280;8878;-33.370;-70.552;2023-05-23T03:56:02;92184.13;;;16.03;59.35
17521;BME280;8878;-33.370;-70.552;2023-05-23T03:58:31;92194.28;;;15.88;59.69
17521;BME280;8878;-33.370;-70.552;2023-05-23T04:01:00;92191.34;;;15.76;59.62
17521;BME280;8878;-33.370;-70.552;2023-05-23T04:03:30;92183.06;;;15.63;59.39
17521;BME280;8878;-33.370;-70.552;2023-05-23T04:06:02;92194.00;;;15.76;58.79
17521;BME280;8878;-33.370;-70.552;2023-05-23T04:08:32;92188.88;;;15.65;58.07
17521;BME280;8878;-33.370;-70.552;2023-05-23T04:11:01;92205.22;;;15.73;58.20
17521;BME280;8878;-33.370;-70.552;2023-05-23T04:13:32;92204.53;;;15.94;56.92
17521;BME280;8878;-33.370;-70.552;2023-05-23T04:16:01;92206.28;;;16.26;57.37
17521;BME280;8878;-33.370;-70.552;2023-05-23T04:18:32;92214.75;;;16.28;57.76
17521;BME280;8878;-33.370;-70.552;2023-05-23T04:21:04;92220.06;;;16.28;57.07
17521;BME280;8878;-33.370;-70.552;2023-05-23T04:23:33;92213.47;;;16.39;57.19
17521;BME280;8878;-33.370;-70.552;2023-05-23T04:26:03;92216.63;;;16.28;58.15
17521;BME280;8878;-33.370;-70.552;2023-05-23T04:28:33;92223.34;;;16.25;58.14
17521;BME280;8878;-33.370;-70.552;2023-05-23T04:31:03;92226.91;;;16.07;57.94
17521;BME280;8878;-33.370;-70.552;2023-05-23T04:33:33;92227.59;;;15.99;57.65
17521;BME280;8878;-33.370;-70.552;2023-05-23T04:36:04;92229.16;;;16.14;58.24
17521;BME280;8878;-33.370;-70.552;2023-05-23T04:38:35;92219.13;;;16.11;58.20
17521;BME280;8878;-33.370;-70.552;2023-05-23T04:41:07;92220.88;;;16.15;57.74
17521;BME280;8878;-33.370;-70.552;2023-05-23T04:43:37;92211.94;;;16.11;58.64
17521;BME280;8878;-33.370;-70.552;2023-05-23T04:46:08;92206.91;;;16.10;58.86
17521;BME280;8878;-33.370;-70.552;2023-05-23T04:48:39;92217.16;;;16.02;59.49
17521;BME280;8878;-33.370;-70.552;2023-05-23T04:51:12;92216.56;;;16.05;59.55
17521;BME280;8878;-33.370;-70.552;2023-05-23T04:53:41;92222.66;;;16.06;58.82
17521;BME280;8878;-33.370;-70.552;2023-05-23T04:56:10;92232.34;;;16.02;59.23
17521;BME280;8878;-33.370;-70.552;2023-05-23T04:58:40;92225.63;;;16.04;59.43
17521;BME280;8878;-33.370;-70.552;2023-05-23T05:01:10;92230.97;;;16.04;59.55
17521;BME280;8878;-33.370;-70.552;2023-05-23T05:03:41;92226.22;;;15.88;59.71
17521;BME280;8878;-33.370;-70.552;2023-05-23T05:06:12;92222.28;;;15.85;60.47
17521;BME280;8878;-33.370;-70.552;2023-05-23T05:08:42;92221.78;;;15.97;60.08
17521;BME280;8878;-33.370;-70.552;2023-05-23T05:11:11;92216.16;;;15.85;59.79
17521;BME280;8878;-33.370;-70.552;2023-05-23T05:13:40;92224.25;;;15.80;60.15
17521;BME280;8878;-33.370;-70.552;2023-05-23T05:16:09;92209.28;;;15.84;60.80
17521;BME280;8878;-33.370;-70.552;2023-05-23T05:18:39;92222.97;;;15.91;60.76
17521;BME280;8878;-33.370;-70.552;2023-05-23T05:21:08;92223.16;;;15.81;61.16
17521;BME280;8878;-33.370;-70.552;2023-05-23T05:23:39;92212.03;;;15.79;61.19
17521;BME280;8878;-33.370;-70.552;2023-05-23T05:26:09;92214.00;;;15.73;61.52
17521;BME280;8878;-33.370;-70.552;2023-05-23T05:28:39;92204.72;;;15.71;61.59
17521;BME280;8878;-33.370;-70.552;2023-05-23T05:31:08;92191.53;;;15.65;61.54
17521;BME280;8878;-33.370;-70.552;2023-05-23T05:33:40;92200.41;;;15.61;61.72
17521;BME280;8878;-33.370;-70.552;2023-05-23T05:36:11;92193.41;;;15.65;61.43
17521;BME280;8878;-33.370;-70.552;2023-05-23T05:38:42;92191.75;;;15.69;60.97
17521;BME280;8878;-33.370;-70.552;2023-05-23T05:41:13;92189.94;;;15.64;60.46
17521;BME280;8878;-33.370;-70.552;2023-05-23T05:43:42;92178.84;;;15.62;60.35
17521;BME280;8878;-33.370;-70.552;2023-05-23T05:46:11;92180.03;;;15.70;60.26
17521;BME280;8878;-33.370;-70.552;2023-05-23T05:48:41;92181.09;;;15.69;60.27
17521;BME280;8878;-33.370;-70.552;2023-05-23T05:51:10;92186.50;;;15.78;60.15
17521;BME280;8878;-33.370;-70.552;2023-05-23T05:53:39;92174.78;;;15.79;59.94
17521;BME280;8878;-33.370;-70.552;2023-05-23T05:56:10;92172.63;;;15.81;59.78
17521;BME280;8878;-33.370;-70.552;2023-05-23T05:58:39;92171.66;;;15.77;59.67
17521;BME280;8878;-33.370;-70.552;2023-05-23T06:01:08;92165.03;;;15.60;59.84
17521;BME280;8878;-33.370;-70.552;2023-05-23T06:03:38;92157.25;;;15.64;59.61
17521;BME280;8878;-33.370;-70.552;2023-05-23T06:06:07;92161.88;;;15.58;60.40
17521;BME280;8878;-33.370;-70.552;2023-05-23T06:08:38;92161.78;;;15.63;60.64
17521;BME280;8878;-33.370;-70.552;2023-05-23T06:11:09;92154.31;;;15.65;60.70
17521;BME280;8878;-33.370;-70.552;2023-05-23T06:13:39;92165.22;;;15.64;60.59
17521;BME280;8878;-33.370;-70.552;2023-05-23T06:16:09;92165.94;;;15.70;60.85
17521;BME280;8878;-33.370;-70.552;2023-05-23T06:18:38;92154.41;;;15.74;61.00
17521;BME280;8878;-33.370;-70.552;2023-05-23T06:21:08;92159.44;;;15.76;61.00
17521;BME280;8878;-33.370;-70.552;2023-05-23T06:23:38;92159.50;;;15.71;61.01
17521;BME280;8878;-33.370;-70.552;2023-05-23T06:26:07;92155.69;;;15.77;61.15
17521;BME280;8878;-33.370;-70.552;2023-05-23T06:28:39;92149.75;;;15.80;60.95
17521;BME280;8878;-33.370;-70.552;2023-05-23T06:31:08;92150.75;;;15.84;61.34
17521;BME280;8878;-33.370;-70.552;2023-05-23T06:33:38;92145.44;;;15.84;61.84
17521;BME280;8878;-33.370;-70.552;2023-05-23T06:36:09;92134.41;;;15.77;62.08
17521;BME280;8878;-33.370;-70.552;2023-05-23T06:38:39;92142.16;;;15.87;61.40
17521;BME280;8878;-33.370;-70.552;2023-05-23T06:41:08;92137.34;;;15.89;61.22
17521;BME280;8878;-33.370;-70.552;2023-05-23T06:43:39;92134.81;;;15.84;60.91
17521;BME280;8878;-33.370;-70.552;2023-05-23T06:46:08;92134.97;;;15.87;60.37
17521;BME280;8878;-33.370;-70.552;2023-05-23T06:48:38;92129.88;;;15.77;60.78
17521;BME280;8878;-33.370;-70.552;2023-05-23T06:51:07;92129.97;;;15.72;60.63
17521;BME280;8878;-33.370;-70.552;2023-05-23T06:53:36;92121.41;;;15.75;60.60
17521;BME280;8878;-33.370;-70.552;2023-05-23T06:56:06;92113.41;;;15.48;60.89
17521;BME280;8878;-33.370;-70.552;2023-05-23T06:58:35;92108.22;;;15.56;61.10
17521;BME280;8878;-33.370;-70.552;2023-05-23T07:01:06;92105.06;;;15.54;61.29
17521;BME280;8878;-33.370;-70.552;2023-05-23T07:03:36;92110.78;;;15.61;61.23
17521;BME280;8878;-33.370;-70.552;2023-05-23T07:06:07;92120.03;;;15.64;61.09
17521;BME280;8878;-33.370;-70.552;2023-05-23T07:08:37;92121.56;;;15.38;61.16
17521;BME280;8878;-33.370;-70.552;2023-05-23T07:11:07;92121.78;;;15.41;61.52
17521;BME280;8878;-33.370;-70.552;2023-05-23T07:13:37;92102.28;;;15.46;61.37
17521;BME280;8878;-33.370;-70.552;2023-05-23T07:16:10;92100.13;;;15.48;61.17
17521;BME280;8878;-33.370;-70.552;2023-05-23T07:18:39;92086.34;;;15.46;61.01
17521;BME280;8878;-33.370;-70.552;2023-05-23T07:21:10;92096.19;;;15.45;61.37
17521;BME280;8878;-33.370;-70.552;2023-05-23T07:23:40;92103.25;;;15.50;61.55
17521;BME280;8878;-33.370;-70.552;2023-05-23T07:26:09;92100.72;;;15.58;61.26
17521;BME280;8878;-33.370;-70.552;2023-05-23T07:28:38;92105.38;;;15.53;61.47
17521;BME280;8878;-33.370;-70.552;2023-05-23T07:31:11;92091.00;;;15.54;61.56
17521;BME280;8878;-33.370;-70.552;2023-05-23T07:33:40;92086.16;;;15.56;61.42
17521;BME280;8878;-33.370;-70.552;2023-05-23T07:36:10;92068.22;;;15.61;60.90
17521;BME280;8878;-33.370;-70.552;2023-05-23T07:38:39;92078.75;;;15.66;61.02
17521;BME280;8878;-33.370;-70.552;2023-05-23T07:41:09;92090.59;;;15.60;60.64
17521;BME280;8878;-33.370;-70.552;2023-05-23T07:43:38;92094.09;;;15.42;60.85
17521;BME280;8878;-33.370;-70.552;2023-05-23T07:46:07;92083.19;;;15.30;61.23
17521;BME280;8878;-33.370;-70.552;2023-05-23T07:48:38;92076.28;;;15.02;61.79
17521;BME280;8878;-33.370;-70.552;2023-05-23T07:51:07;92056.78;;;15.06;62.25
17521;BME280;8878;-33.370;-70.552;2023-05-23T07:53:37;92065.47;;;15.12;62.09
17521;BME280;8878;-33.370;-70.552;2023-05-23T07:56:08;92076.50;;;15.19;62.34
17521;BME280;8878;-33.370;-70.552;2023-05-23T07:58:37;92085.94;;;15.11;62.46
17521;BME280;8878;-33.370;-70.552;2023-05-23T08:01:06;92089.38;;;15.12;62.41
17521;BME280;8878;-33.370;-70.552;2023-05-23T08:03:37;92093.59;;;14.99;62.60
17521;BME280;8878;-33.370;-70.552;2023-05-23T08:06:07;92092.63;;;15.09;62.63
17521;BME280;8878;-33.370;-70.552;2023-05-23T08:08:36;92088.31;;;15.13;62.42
17521;BME280;8878;-33.370;-70.552;2023-05-23T08:11:05;92086.63;;;15.17;62.21
17521;BME280;8878;-33.370;-70.552;2023-05-23T08:13:35;92084.38;;;15.24;62.43
17521;BME280;8878;-33.370;-70.552;2023-05-23T08:16:04;92070.78;;;15.39;62.08
17521;BME280;8878;-33.370;-70.552;2023-05-23T08:18:34;92067.72;;;15.46;61.95
17521;BME280;8878;-33.370;-70.552;2023-05-23T08:21:06;92065.66;;;15.29;61.83
17521;BME280;8878;-33.370;-70.552;2023-05-23T08:23:35;92057.00;;;15.37;61.79
17521;BME280;8878;-33.370;-70.552;2023-05-23T08:26:04;92058.47;;;15.16;62.31
17521;BME280;8878;-33.370;-70.552;2023-05-23T08:28:33;92062.13;;;15.20;62.60
17521;BME280;8878;-33.370;-70.552;2023-05-23T08:31:03;92067.44;;;15.20;62.67
17521;BME280;8878;-33.370;-70.552;2023-05-23T08:33:33;92060.44;;;14.97;63.05
17521;BME280;8878;-33.370;-70.552;2023-05-23T08:36:04;92070.44;;;14.86;63.83
17521;BME280;8878;-33.370;-70.552;2023-05-23T08:38:33;92073.06;;;15.05;63.55
17521;BME280;8878;-33.370;-70.552;2023-05-23T08:41:05;92067.34;;;14.98;63.51
17521;BME280;8878;-33.370;-70.552;2023-05-23T08:43:39;92066.16;;;15.17;63.50
17521;BME280;8878;-33.370;-70.552;2023-05-23T08:46:08;92059.16;;;15.21;63.34
17521;BME280;8878;-33.370;-70.552;2023-05-23T08:48:39;92062.59;;;15.08;63.37
17521;BME280;8878;-33.370;-70.552;2023-05-23T08:51:13;92070.47;;;15.13;63.38
17521;BME280;8878;-33.370;-70.552;2023-05-23T08:53:44;92068.31;;;15.15;63.51
17521;BME280;8878;-33.370;-70.552;2023-05-23T08:56:15;92067.44;;;15.34;63.37
17521;BME280;8878;-33.370;-70.552;2023-05-23T08:58:45;92070.56;;;15.22;63.22
17521;BME280;8878;-33.370;-70.552;2023-05-23T09:01:15;92085.66;;;15.13;63.64
17521;BME280;8878;-33.370;-70.552;2023-05-23T09:03:47;92092.44;;;15.19;63.70
17521;BME280;8878;-33.370;-70.552;2023-05-23T09:06:20;92097.53;;;15.02;63.99
17521;BME280;8878;-33.370;-70.552;2023-05-23T09:08:50;92097.81;;;14.86;64.73
17521;BME280;8878;-33.370;-70.552;2023-05-23T09:11:19;92096.63;;;14.93;64.75
17521;BME280;8878;-33.370;-70.552;2023-05-23T09:13:50;92102.88;;;15.29;63.86
17521;BME280;8878;-33.370;-70.552;2023-05-23T09:16:19;92093.53;;;15.32;63.35
17521;BME280;8878;-33.370;-70.552;2023-05-23T09:18:48;92086.91;;;15.29;63.53
17521;BME280;8878;-33.370;-70.552;2023-05-23T09:21:19;92080.41;;;15.49;62.89
17521;BME280;8878;-33.370;-70.552;2023-05-23T09:23:51;92081.91;;;15.69;62.32
17521;BME280;8878;-33.370;-70.552;2023-05-23T09:26:22;92088.91;;;15.64;61.85
17521;BME280;8878;-33.370;-70.552;2023-05-23T09:28:56;92085.34;;;15.83;61.32
17521;BME280;8878;-33.370;-70.552;2023-05-23T09:31:28;92081.31;;;15.72;61.59
17521;BME280;8878;-33.370;-70.552;2023-05-23T09:33:59;92081.41;;;15.66;61.51
17521;BME280;8878;-33.370;-70.552;2023-05-23T09:36:31;92076.38;;;15.51;62.60
17521;BME280;8878;-33.370;-70.552;2023-05-23T09:39:03;92075.09;;;15.49;62.94
17521;BME280;8878;-33.370;-70.552;2023-05-23T09:41:34;92072.03;;;15.42;62.94
17521;BME280;8878;-33.370;-70.552;2023-05-23T09:44:07;92067.63;;;15.23;63.66
17521;BME280;8878;-33.370;-70.552;2023-05-23T09:46:37;92056.59;;;15.30;63.32
17521;BME280;8878;-33.370;-70.552;2023-05-23T09:49:15;92046.84;;;15.39;62.89
17521;BME280;8878;-33.370;-70.552;2023-05-23T09:51:56;92046.34;;;15.37;62.86
17521;BME280;8878;-33.370;-70.552;2023-05-23T09:54:26;92045.59;;;15.23;63.18
17521;BME280;8878;-33.370;-70.552;2023-05-23T09:56:55;92038.78;;;15.17;62.93
17521;BME280;8878;-33.370;-70.552;2023-05-23T09:59:28;92040.78;;;15.25;62.86
17521;BME280;8878;-33.370;-70.552;2023-05-23T10:02:01;92037.88;;;15.35;62.63
17521;BME280;8878;-33.370;-70.552;2023-05-23T10:04:33;92025.31;;;15.27;62.74
17521;BME280;8878;-33.370;-70.552;2023-05-23T10:07:11;92023.50;;;15.36;62.84
17521;BME280;8878;-33.370;-70.552;2023-05-23T10:09:46;92018.41;;;15.40;62.81
17521;BME280;8878;-33.370;-70.552;2023-05-23T10:12:43;92019.19;;;15.40;62.75
17521;BME280;8878;-33.370;-70.552;2023-05-23T10:15:15;92019.75;;;15.51;62.19
17521;BME280;8878;-33.370;-70.552;2023-05-23T10:18:11;92016.59;;;15.49;62.20
17521;BME280;8878;-33.370;-70.552;2023-05-23T10:20:48;92021.75;;;15.45;62.25
17521;BME280;8878;-33.370;-70.552;2023-05-23T10:23:21;92028.53;;;15.51;61.83
17521;BME280;8878;-33.370;-70.552;2023-05-23T10:25:51;92026.78;;;15.60;61.84
17521;BME280;8878;-33.370;-70.552;2023-05-23T10:28:21;92021.56;;;15.55;61.70
17521;BME280;8878;-33.370;-70.552;2023-05-23T10:30:53;92034.13;;;15.63;62.18
17521;BME280;8878;-33.370;-70.552;2023-05-23T10:33:23;92028.81;;;15.50;61.98
17521;BME280;8878;-33.370;-70.552;2023-05-23T10:35:56;92034.53;;;15.57;61.65
17521;BME280;8878;-33.370;-70.552;2023-05-23T10:38:33;92029.31;;;15.65;60.71
17521;BME280;8878;-33.370;-70.552;2023-05-23T10:41:09;92020.97;;;15.58;61.54
17521;BME280;8878;-33.370;-70.552;2023-05-23T10:43:46;92020.00;;;15.54;61.60
17521;BME280;8878;-33.370;-70.552;2023-05-23T10:46:19;92035.25;;;15.62;61.08
17521;BME280;8878;-33.370;-70.552;2023-05-23T10:48:54;92033.06;;;15.37;61.45
17521;BME280;8878;-33.370;-70.552;2023-05-23T10:51:24;92040.22;;;15.50;61.58
17521;BME280;8878;-33.370;-70.552;2023-05-23T10:53:56;92049.00;;;15.51;61.63
17521;BME280;8878;-33.370;-70.552;2023-05-23T10:56:31;92045.00;;;15.53;62.19
17521;BME280;8878;-33.370;-70.552;2023-05-23T10:59:00;92042.34;;;14.99;63.34
17521;BME280;8878;-33.370;-70.552;2023-05-23T11:01:30;92048.34;;;15.18;63.18
17521;BME280;8878;-33.370;-70.552;2023-05-23T11:04:04;92050.09;;;15.36;63.25
17521;BME280;8878;-33.370;-70.552;2023-05-23T11:06:38;92054.03;;;15.52;62.31
17521;BME280;8878;-33.370;-70.552;2023-05-23T11:09:12;92060.06;;;15.58;62.34
17521;BME280;8878;-33.370;-70.552;2023-05-23T11:11:54;92064.66;;;15.52;61.91
17521;BME280;8878;-33.370;-70.552;2023-05-23T11:14:52;92053.66;;;15.18;63.21
17521;BME280;8878;-33.370;-70.552;2023-05-23T11:17:32;92065.56;;;15.07;63.82
17521;BME280;8878;-33.370;-70.552;2023-05-23T11:20:05;92068.41;;;15.10;63.45
17521;BME280;8878;-33.370;-70.552;2023-05-23T11:22:35;92067.19;;;14.75;64.58
17521;BME280;8878;-33.370;-70.552;2023-05-23T11:25:11;92080.00;;;15.01;64.31
17521;BME280;8878;-33.370;-70.552;2023-05-23T11:27:40;92073.91;;;15.14;63.88
17521;BME280;8878;-33.370;-70.552;2023-05-23T11:30:14;92075.44;;;15.20;63.57
17521;BME280;8878;-33.370;-70.552;2023-05-23T11:32:50;92086.44;;;15.27;63.72
17521;BME280;8878;-33.370;-70.552;2023-05-23T11:35:20;92090.66;;;15.42;63.13
17521;BME280;8878;-33.370;-70.552;2023-05-23T11:37:49;92098.84;;;15.45;62.80
17521;BME280;8878;-33.370;-70.552;2023-05-23T11:40:28;92100.31;;;15.38;62.91
17521;BME280;8878;-33.370;-70.552;2023-05-23T11:42:58;92101.69;;;15.21;63.47
17521;BME280;8878;-33.370;-70.552;2023-05-23T11:45:29;92105.81;;;15.27;63.55
17521;BME280;8878;-33.370;-70.552;2023-05-23T11:48:05;92102.28;;;15.32;63.61
17521;BME280;8878;-33.370;-70.552;2023-05-23T11:50:43;92107.88;;;15.31;63.84
17521;BME280;8878;-33.370;-70.552;2023-05-23T11:53:12;92106.59;;;15.28;64.09
17521;BME280;8878;-33.370;-70.552;2023-05-23T11:55:50;92105.63;;;15.24;64.15
17521;BME280;8878;-33.370;-70.552;2023-05-23T11:58:21;92110.16;;;15.10;64.47
17521;BME280;8878;-33.370;-70.552;2023-05-23T12:00:50;92119.81;;;15.19;64.48
17521;BME280;8878;-33.370;-70.552;2023-05-23T12:03:20;92117.56;;;15.26;64.50
17521;BME280;8878;-33.370;-70.552;2023-05-23T12:05:49;92122.38;;;15.24;64.96
17521;BME280;8878;-33.370;-70.552;2023-05-23T12:08:18;92132.59;;;15.31;64.62
17521;BME280;8878;-33.370;-70.552;2023-05-23T12:10:55;92136.31;;;15.16;64.47
17521;BME280;8878;-33.370;-70.552;2023-05-23T12:13:26;92138.31;;;15.38;64.53
17521;BME280;8878;-33.370;-70.552;2023-05-23T12:15:56;92146.19;;;15.43;64.14
17521;BME280;8878;-33.370;-70.552;2023-05-23T12:18:28;92136.84;;;15.32;64.20
17521;BME280;8878;-33.370;-70.552;2023-05-23T12:21:02;92144.81;;;15.18;64.72
17521;BME280;8878;-33.370;-70.552;2023-05-23T12:23:32;92152.81;;;15.00;65.14
17521;BME280;8878;-33.370;-70.552;2023-05-23T12:26:04;92148.94;;;15.24;64.60
17521;BME280;8878;-33.370;-70.552;2023-05-23T12:28:36;92152.91;;;15.41;64.28
17521;BME280;8878;-33.370;-70.552;2023-05-23T12:31:42;92156.94;;;15.52;63.88
17521;BME280;8878;-33.370;-70.552;2023-05-23T12:34:12;92174.69;;;15.56;64.39
17521;BME280;8878;-33.370;-70.552;2023-05-23T12:36:42;92175.69;;;15.60;64.06
17521;BME280;8878;-33.370;-70.552;2023-05-23T12:39:12;92178.84;;;15.62;63.89
17521;BME280;8878;-33.370;-70.552;2023-05-23T12:41:44;92176.38;;;15.66;64.25
17521;BME280;8878;-33.370;-70.552;2023-05-23T12:44:15;92173.53;;;15.62;64.36
17521;BME280;8878;-33.370;-70.552;2023-05-23T12:46:46;92184.75;;;15.59;64.48
17521;BME280;8878;-33.370;-70.552;2023-05-23T12:49:16;92176.38;;;15.66;64.39
17521;BME280;8878;-33.370;-70.552;2023-05-23T12:51:45;92182.09;;;15.59;64.59
17521;BME280;8878;-33.370;-70.552;2023-05-23T12:54:15;92180.50;;;15.58;64.73
17521;BME280;8878;-33.370;-70.552;2023-05-23T12:56:46;92192.53;;;15.70;64.11
17521;BME280;8878;-33.370;-70.552;2023-05-23T12:59:15;92191.13;;;15.72;64.03
17521;BME280;8878;-33.370;-70.552;2023-05-23T13:01:45;92201.88;;;15.81;64.08